sensor_id;sensor_type;location;lat;lon;timestamp;pressure;altitude;pressure_sealevel;temperature;humidity
71105;BME280;58760;48.716;8.962;2023-05-25T00:01:06;96829.16;;;10.14;61.61
71105;BME280;58760;48.716;8.962;2023-05-25T00:03:32;96826.38;;;10.23;61.64
71105;BME280;58760;48.716;8.962;2023-05-25T00:05:58;96828.69;;;10.26;61.40
71105;BME280;58760;48.716;8.962;2023-05-25T00:08:25;96825.88;;;10.20;61.64
71105;BME280;58760;48.716;8.962;2023-05-25T00:10:51;96821.91;;;10.24;61.47
71105;BME280;58760;48.716;8.962;2023-05-25T00:13:16;96823.03;;;10.21;61.87
71105;BME280;58760;48.716;8.962;2023-05-25T00:15:41;96825.34;;;10.24;61.67
71105;BME280;58760;48.716;8.962;2023-05-25T00:18:07;96824.56;;;10.32;61.31
71105;BME280;58760;48.716;8.962;2023-05-25T00:20:32;96831.03;;;10.29;61.63
71105;BME280;58760;48.716;8.962;2023-05-25T00:22:58;96831.19;;;10.36;61.29
71105;BME280;58760;48.716;8.962;2023-05-25T00:25:26;96825.88;;;10.28;61.78
71105;BME280;58760;48.716;8.962;2023-05-25T00:27:51;96826.38;;;10.39;61.41
71105;BME280;58760;48.716;8.962;2023-05-25T00:30:17;96831.84;;;10.30;61.14
71105;BME280;58760;48.716;8.962;2023-05-25T00:32:42;96833.97;;;10.18;62.00
71105;BME280;58760;48.716;8.962;2023-05-25T00:35:08;96819.84;;;10.10;62.31
71105;BME280;58760;48.716;8.962;2023-05-25T00:37:33;96827.94;;;10.08;62.46
71105;BME280;58760;48.716;8.962;2023-05-25T00:39:58;96829.28;;;10.12;62.40
71105;BME280;58760;48.716;8.962;2023-05-25T00:42:24;96828.97;;;10.07;62.52
71105;BME280;58760;48.716;8.962;2023-05-25T00:44:49;96826.97;;;10.01;62.91
71105;BME280;58760;48.716;8.962;2023-05-25T00:47:15;96821.16;;;9.97;62.80
71105;BME280;58760;48.716;8.962;2023-05-25T00:49:41;96824.31;;;10.01;62.88
71105;BME280;58760;48.716;8.962;2023-05-25T00:52:07;96819.94;;;9.92;63.03
71105;BME280;58760;48.716;8.962;2023-05-25T00:54:34;96816.81;;;9.96;63.03
71105;BME280;58760;48.716;8.962;2023-05-25T00:57:03;96822.94;;;9.89;63.31
71105;BME280;58760;48.716;8.962;2023-05-25T00:59:39;96816.97;;;9.95;62.97
71105;BME280;58760;48.716;8.962;2023-05-25T01:02:08;96823.56;;;9.83;63.61
71105;BME280;58760;48.716;8.962;2023-05-25T01:04:37;96817.09;;;9.77;63.88
71105;BME280;58760;48.716;8.962;2023-05-25T01:07:03;96821.44;;;9.78;63.92
71105;BME280;58760;48.716;8.962;2023-05-25T01:09:31;96826.53;;;9.72;64.20
71105;BME280;58760;48.716;8.962;2023-05-25T01:11:59;96822.03;;;9.72;64.28
71105;BME280;58760;48.716;8.962;2023-05-25T01:14:26;96819.25;;;9.74;64.40
71105;BME280;58760;48.716;8.962;2023-05-25T01:16:52;96824.53;;;9.74;64.25
71105;BME280;58760;48.716;8.962;2023-05-25T01:19:19;96822.38;;;9.69;64.59
71105;BME280;58760;48.716;8.962;2023-05-25T01:22:03;96821.25;;;9.72;64.59
71105;BME280;58760;48.716;8.962;2023-05-25T01:24:43;96821.06;;;9.73;64.73
71105;BME280;58760;48.716;8.962;2023-05-25T01:29:44;96821.06;;;9.65;65.39
71105;BME280;58760;48.716;8.962;2023-05-25T01:32:12;96828.63;;;9.60;65.47
71105;BME280;58760;48.716;8.962;2023-05-25T01:34:39;96817.84;;;9.54;65.98
71105;BME280;58760;48.716;8.962;2023-05-25T01:37:05;96804.41;;;9.47;66.42
71105;BME280;58760;48.716;8.962;2023-05-25T01:39:30;96812.66;;;9.44;66.66
71105;BME280;58760;48.716;8.962;2023-05-25T01:41:56;96817.75;;;9.37;66.80
71105;BME280;58760;48.716;8.962;2023-05-25T01:44:22;96813.16;;;9.39;67.00
71105;BME280;58760;48.716;8.962;2023-05-25T01:46:52;96817.56;;;9.31;67.43
71105;BME280;58760;48.716;8.962;2023-05-25T01:50:00;96819.03;;;9.25;67.77
71105;BME280;58760;48.716;8.962;2023-05-25T01:52:44;96819.97;;;9.16;68.16
71105;BME280;58760;48.716;8.962;2023-05-25T01:55:17;96821.47;;;9.19;68.84
71105;BME280;58760;48.716;8.962;2023-05-25T01:57:49;96824.84;;;9.29;69.23
71105;BME280;58760;48.716;8.962;2023-05-25T02:00:15;96828.28;;;9.21;68.62
71105;BME280;58760;48.716;8.962;2023-05-25T02:02:43;96829.03;;;9.14;68.58
71105;BME280;58760;48.716;8.962;2023-05-25T02:05:09;96827.56;;;9.11;68.67
71105;BME280;58760;48.716;8.962;2023-05-25T02:07:35;96829.53;;;9.09;68.91
71105;BME280;58760;48.716;8.962;2023-05-25T02:10:01;96825.06;;;9.10;69.27
71105;BME280;58760;48.716;8.962;2023-05-25T02:12:26;96822.44;;;9.10;69.02
71105;BME280;58760;48.716;8.962;2023-05-25T02:14:52;96818.25;;;9.07;68.96
71105;BME280;58760;48.716;8.962;2023-05-25T02:17:17;96815.13;;;9.04;69.40
71105;BME280;58760;48.716;8.962;2023-05-25T02:19:44;96820.91;;;9.07;69.53
71105;BME280;58760;48.716;8.962;2023-05-25T02:22:09;96811.63;;;9.03;69.81
71105;BME280;58760;48.716;8.962;2023-05-25T02:24:35;96808.47;;;9.00;69.53
71105;BME280;58760;48.716;8.962;2023-05-25T02:27:03;96804.16;;;8.99;69.61
71105;BME280;58760;48.716;8.962;2023-05-25T02:29:28;96794.84;;;8.94;69.82
71105;BME280;58760;48.716;8.962;2023-05-25T02:31:53;96793.34;;;8.92;69.70
71105;BME280;58760;48.716;8.962;2023-05-25T02:34:19;96793.53;;;8.90;70.18
71105;BME280;58760;48.716;8.962;2023-05-25T02:36:44;96790.69;;;8.84;70.22
71105;BME280;58760;48.716;8.962;2023-05-25T02:39:10;96794.59;;;8.80;70.39
71105;BME280;58760;48.716;8.962;2023-05-25T02:41:36;96792.28;;;8.77;70.44
71105;BME280;58760;48.716;8.962;2023-05-25T02:44:02;96785.31;;;8.76;70.60
71105;BME280;58760;48.716;8.962;2023-05-25T02:46:27;96801.50;;;8.73;70.75
71105;BME280;58760;48.716;8.962;2023-05-25T02:48:52;96796.88;;;8.75;71.10
71105;BME280;58760;48.716;8.962;2023-05-25T02:51:18;96802.34;;;8.73;70.79
71105;BME280;58760;48.716;8.962;2023-05-25T02:53:43;96797.34;;;8.70;70.95
71105;BME280;58760;48.716;8.962;2023-05-25T02:56:08;96797.81;;;8.66;71.14
71105;BME280;58760;48.716;8.962;2023-05-25T02:58:37;96801.28;;;8.66;71.18
71105;BME280;58760;48.716;8.962;2023-05-25T03:01:02;96807.03;;;8.62;71.15
71105;BME280;58760;48.716;8.962;2023-05-25T03:03:29;96804.88;;;8.57;71.64
71105;BME280;58760;48.716;8.962;2023-05-25T03:05:55;96807.66;;;8.56;71.66
71105;BME280;58760;48.716;8.962;2023-05-25T03:08:21;96818.53;;;8.53;71.84
71105;BME280;58760;48.716;8.962;2023-05-25T03:10:46;96822.47;;;8.49;71.96
71105;BME280;58760;48.716;8.962;2023-05-25T03:13:12;96816.81;;;8.44;71.92
71105;BME280;58760;48.716;8.962;2023-05-25T03:15:37;96816.44;;;8.38;72.23
71105;BME280;58760;48.716;8.962;2023-05-25T03:18:04;96813.13;;;8.36;72.48
71105;BME280;58760;48.716;8.962;2023-05-25T03:20:30;96806.63;;;8.31;72.84
71105;BME280;58760;48.716;8.962;2023-05-25T03:22:57;96819.41;;;8.26;72.84
71105;BME280;58760;48.716;8.962;2023-05-25T03:25:22;96812.78;;;8.22;73.31
71105;BME280;58760;48.716;8.962;2023-05-25T03:27:51;96826.69;;;8.24;73.37
71105;BME280;58760;48.716;8.962;2023-05-25T03:30:17;96826.31;;;8.19;73.11
71105;BME280;58760;48.716;8.962;2023-05-25T03:32:42;96829.41;;;8.14;73.21
71105;BME280;58760;48.716;8.962;2023-05-25T03:35:08;96823.28;;;8.14;73.40
71105;BME280;58760;48.716;8.962;2023-05-25T03:37:33;96826.38;;;8.09;73.68
71105;BME280;58760;48.716;8.962;2023-05-25T03:39:59;96839.59;;;8.09;73.66
71105;BME280;58760;48.716;8.962;2023-05-25T03:42:24;96830.13;;;8.07;73.83
71105;BME280;58760;48.716;8.962;2023-05-25T03:44:49;96826.84;;;8.05;73.91
71105;BME280;58760;48.716;8.962;2023-05-25T03:47:15;96825.03;;;8.05;73.83
71105;BME280;58760;48.716;8.962;2023-05-25T03:49:40;96822.59;;;8.12;73.79
71105;BME280;58760;48.716;8.962;2023-05-25T03:52:06;96821.47;;;8.14;73.67
71105;BME280;58760;48.716;8.962;2023-05-25T03:54:31;96820.63;;;8.14;73.73
71105;BME280;58760;48.716;8.962;2023-05-25T03:56:57;96829.56;;;8.13;73.65
71105;BME280;58760;48.716;8.962;2023-05-25T03:59:24;96830.97;;;8.07;74.16
71105;BME280;58760;48.716;8.962;2023-05-25T04:01:50;96825.38;;;8.10;74.02
71105;BME280;58760;48.716;8.962;2023-05-25T04:04:16;96829.59;;;8.03;74.28
71105;BME280;58760;48.716;8.962;2023-05-25T04:06:42;96834.91;;;8.03;74.28
71105;BME280;58760;48.716;8.962;2023-05-25T04:09:10;96836.72;;;8.03;74.33
71105;BME280;58760;48.716;8.962;2023-05-25T04:11:35;96838.00;;;7.99;74.49
71105;BME280;58760;48.716;8.962;2023-05-25T04:14:00;96839.50;;;8.01;74.46
71105;BME280;58760;48.716;8.962;2023-05-25T04:16:26;96844.34;;;8.06;74.32
71105;BME280;58760;48.716;8.962;2023-05-25T04:18:51;96840.19;;;8.03;74.63
71105;BME280;58760;48.716;8.962;2023-05-25T04:21:17;96836.72;;;8.03;74.92
71105;BME280;58760;48.716;8.962;2023-05-25T04:23:42;96835.13;;;8.10;74.48
71105;BME280;58760;48.716;8.962;2023-05-25T04:26:07;96840.41;;;8.10;74.73
71105;BME280;58760;48.716;8.962;2023-05-25T04:28:35;96841.66;;;8.15;74.33
71105;BME280;58760;48.716;8.962;2023-05-25T04:31:02;96840.94;;;8.13;74.38
71105;BME280;58760;48.716;8.962;2023-05-25T04:33:28;96844.53;;;8.22;74.46
71105;BME280;58760;48.716;8.962;2023-05-25T04:35:54;96840.56;;;8.26;74.40
71105;BME280;58760;48.716;8.962;2023-05-25T04:38:23;96825.28;;;8.29;74.27
71105;BME280;58760;48.716;8.962;2023-05-25T04:40:49;96830.94;;;8.34;74.14
71105;BME280;58760;48.716;8.962;2023-05-25T04:43:16;96838.94;;;8.43;73.94
71105;BME280;58760;48.716;8.962;2023-05-25T04:45:42;96840.16;;;8.48;73.98
71105;BME280;58760;48.716;8.962;2023-05-25T04:48:08;96844.44;;;8.49;73.62
71105;BME280;58760;48.716;8.962;2023-05-25T04:50:33;96851.09;;;8.53;73.61
71105;BME280;58760;48.716;8.962;2023-05-25T04:52:58;96844.97;;;8.53;73.68
71105;BME280;58760;48.716;8.962;2023-05-25T04:55:24;96848.84;;;8.58;73.11
71105;BME280;58760;48.716;8.962;2023-05-25T04:57:50;96840.44;;;8.63;73.30
71105;BME280;58760;48.716;8.962;2023-05-25T05:00:18;96845.28;;;8.67;73.16
71105;BME280;58760;48.716;8.962;2023-05-25T05:02:43;96845.56;;;8.82;72.56
71105;BME280;58760;48.716;8.962;2023-05-25T05:05:09;96843.44;;;8.85;72.43
71105;BME280;58760;48.716;8.962;2023-05-25T05:07:34;96841.97;;;8.91;72.37
71105;BME280;58760;48.716;8.962;2023-05-25T05:10:00;96844.81;;;8.98;72.22
71105;BME280;58760;48.716;8.962;2023-05-25T05:12:25;96849.97;;;8.99;72.07
71105;BME280;58760;48.716;8.962;2023-05-25T05:14:51;96854.34;;;9.08;71.70
71105;BME280;58760;48.716;8.962;2023-05-25T05:17:17;96857.88;;;9.17;71.50
71105;BME280;58760;48.716;8.962;2023-05-25T05:19:42;96851.06;;;9.14;71.59
71105;BME280;58760;48.716;8.962;2023-05-25T05:22:08;96860.03;;;9.21;71.13
71105;BME280;58760;48.716;8.962;2023-05-25T05:24:34;96861.88;;;9.21;71.59
71105;BME280;58760;48.716;8.962;2023-05-25T05:26:59;96863.47;;;9.39;71.10
71105;BME280;58760;48.716;8.962;2023-05-25T05:29:25;96874.06;;;9.39;71.04
71105;BME280;58760;48.716;8.962;2023-05-25T05:31:53;96877.59;;;9.48;70.97
71105;BME280;58760;48.716;8.962;2023-05-25T05:34:19;96884.13;;;9.62;69.95
71105;BME280;58760;48.716;8.962;2023-05-25T05:36:44;96878.84;;;9.70;69.48
71105;BME280;58760;48.716;8.962;2023-05-25T05:39:10;96891.94;;;9.71;69.68
71105;BME280;58760;48.716;8.962;2023-05-25T05:41:35;96883.88;;;9.81;69.05
71105;BME280;58760;48.716;8.962;2023-05-25T05:44:00;96887.56;;;9.88;69.07
71105;BME280;58760;48.716;8.962;2023-05-25T05:46:26;96891.53;;;9.92;69.18
71105;BME280;58760;48.716;8.962;2023-05-25T05:48:51;96902.00;;;10.02;68.76
71105;BME280;58760;48.716;8.962;2023-05-25T05:51:16;96904.50;;;10.03;69.06
71105;BME280;58760;48.716;8.962;2023-05-25T05:53:42;96905.69;;;10.09;68.95
71105;BME280;58760;48.716;8.962;2023-05-25T05:56:16;96902.09;;;10.18;68.32
71105;BME280;58760;48.716;8.962;2023-05-25T05:58:41;96907.56;;;10.24;67.99
71105;BME280;58760;48.716;8.962;2023-05-25T06:01:06;96915.19;;;10.19;67.77
71105;BME280;58760;48.716;8.962;2023-05-25T06:03:33;96913.84;;;10.15;68.43
71105;BME280;58760;48.716;8.962;2023-05-25T06:05:58;96914.88;;;10.22;68.40
71105;BME280;58760;48.716;8.962;2023-05-25T06:08:24;96915.91;;;10.29;68.17
71105;BME280;58760;48.716;8.962;2023-05-25T06:10:50;96922.69;;;10.32;68.53
71105;BME280;58760;48.716;8.962;2023-05-25T06:13:15;96917.09;;;10.43;68.05
71105;BME280;58760;48.716;8.962;2023-05-25T06:15:41;96925.91;;;10.52;68.25
71105;BME280;58760;48.716;8.962;2023-05-25T06:18:06;96915.13;;;10.53;67.98
71105;BME280;58760;48.716;8.962;2023-05-25T06:20:32;96917.94;;;10.52;67.84
71105;BME280;58760;48.716;8.962;2023-05-25T06:22:57;96919.31;;;10.72;67.72
71105;BME280;58760;48.716;8.962;2023-05-25T06:25:23;96926.78;;;10.84;67.52
71105;BME280;58760;48.716;8.962;2023-05-25T06:27:48;96920.97;;;10.81;66.93
71105;BME280;58760;48.716;8.962;2023-05-25T06:30:13;96923.97;;;10.86;66.70
71105;BME280;58760;48.716;8.962;2023-05-25T06:32:39;96916.31;;;10.83;67.04
71105;BME280;58760;48.716;8.962;2023-05-25T06:35:04;96925.78;;;10.85;67.36
71105;BME280;58760;48.716;8.962;2023-05-25T06:37:30;96928.28;;;10.95;68.46
71105;BME280;58760;48.716;8.962;2023-05-25T06:39:59;96921.63;;;11.07;67.31
71105;BME280;58760;48.716;8.962;2023-05-25T06:42:26;96934.28;;;11.05;67.14
71105;BME280;58760;48.716;8.962;2023-05-25T06:44:51;96931.28;;;11.08;67.09
71105;BME280;58760;48.716;8.962;2023-05-25T06:47:17;96934.59;;;11.02;67.70
71105;BME280;58760;48.716;8.962;2023-05-25T06:49:42;96923.28;;;11.16;68.03
71105;BME280;58760;48.716;8.962;2023-05-25T06:52:08;96922.47;;;11.24;67.91
71105;BME280;58760;48.716;8.962;2023-05-25T06:54:33;96919.44;;;11.35;67.47
71105;BME280;58760;48.716;8.962;2023-05-25T06:56:58;96917.97;;;11.40;67.57
71105;BME280;58760;48.716;8.962;2023-05-25T06:59:23;96925.91;;;11.48;67.33
71105;BME280;58760;48.716;8.962;2023-05-25T07:01:49;96930.25;;;11.49;67.40
71105;BME280;58760;48.716;8.962;2023-05-25T07:04:14;96932.88;;;11.66;66.89
71105;BME280;58760;48.716;8.962;2023-05-25T07:06:40;96937.00;;;11.84;66.71
71105;BME280;58760;48.716;8.962;2023-05-25T07:09:05;96939.44;;;12.02;66.46
71105;BME280;58760;48.716;8.962;2023-05-25T07:11:31;96941.16;;;12.26;65.36
71105;BME280;58760;48.716;8.962;2023-05-25T07:13:56;96938.63;;;12.40;64.75
71105;BME280;58760;48.716;8.962;2023-05-25T07:16:21;96939.22;;;12.50;64.71
71105;BME280;58760;48.716;8.962;2023-05-25T07:18:47;96933.56;;;12.53;64.10
71105;BME280;58760;48.716;8.962;2023-05-25T07:21:12;96940.19;;;12.57;63.59
71105;BME280;58760;48.716;8.962;2023-05-25T07:23:37;96943.47;;;12.68;63.45
71105;BME280;58760;48.716;8.962;2023-05-25T07:26:05;96946.91;;;12.76;63.54
71105;BME280;58760;48.716;8.962;2023-05-25T07:28:30;96943.41;;;12.98;63.24
71105;BME280;58760;48.716;8.962;2023-05-25T07:30:56;96945.91;;;13.00;62.62
71105;BME280;58760;48.716;8.962;2023-05-25T07:33:21;96944.72;;;13.02;62.12
71105;BME280;58760;48.716;8.962;2023-05-25T07:35:46;96953.91;;;13.00;61.81
71105;BME280;58760;48.716;8.962;2023-05-25T07:38:12;96952.47;;;12.89;62.09
71105;BME280;58760;48.716;8.962;2023-05-25T07:40:37;96954.94;;;12.91;62.49
71105;BME280;58760;48.716;8.962;2023-05-25T07:43:02;96953.06;;;12.99;62.67
71105;BME280;58760;48.716;8.962;2023-05-25T07:45:29;96956.69;;;13.06;63.32
71105;BME280;58760;48.716;8.962;2023-05-25T07:47:54;96959.72;;;13.26;63.83
71105;BME280;58760;48.716;8.962;2023-05-25T07:50:20;96960.22;;;13.44;62.49
71105;BME280;58760;48.716;8.962;2023-05-25T07:52:46;96964.47;;;13.53;62.65
71105;BME280;58760;48.716;8.962;2023-05-25T07:55:11;96957.69;;;13.66;61.89
71105;BME280;58760;48.716;8.962;2023-05-25T07:57:37;96960.81;;;13.69;61.58
71105;BME280;58760;48.716;8.962;2023-05-25T08:00:02;96963.13;;;13.72;61.20
71105;BME280;58760;48.716;8.962;2023-05-25T08:02:30;96962.22;;;13.80;61.21
71105;BME280;58760;48.716;8.962;2023-05-25T08:04:55;96963.34;;;14.00;61.53
71105;BME280;58760;48.716;8.962;2023-05-25T08:07:21;96963.72;;;14.11;61.02
71105;BME280;58760;48.716;8.962;2023-05-25T08:09:49;96957.56;;;14.11;59.57
71105;BME280;58760;48.716;8.962;2023-05-25T08:12:14;96962.78;;;13.90;60.58
71105;BME280;58760;48.716;8.962;2023-05-25T08:14:39;96947.88;;;13.95;61.04
71105;BME280;58760;48.716;8.962;2023-05-25T08:17:04;96952.56;;;13.79;61.17
71105;BME280;58760;48.716;8.962;2023-05-25T08:19:31;96952.72;;;13.62;61.62
71105;BME280;58760;48.716;8.962;2023-05-25T08:21:57;96967.72;;;13.63;62.17
71105;BME280;58760;48.716;8.962;2023-05-25T08:24:22;96966.78;;;13.56;61.76
71105;BME280;58760;48.716;8.962;2023-05-25T08:26:48;96958.78;;;13.56;62.53
71105;BME280;58760;48.716;8.962;2023-05-25T08:29:13;96961.06;;;13.45;62.41
71105;BME280;58760;48.716;8.962;2023-05-25T08:31:39;96957.09;;;13.41;63.15
71105;BME280;58760;48.716;8.962;2023-05-25T08:34:06;96950.03;;;13.48;62.71
71105;BME280;58760;48.716;8.962;2023-05-25T08:36:31;96958.16;;;13.54;63.26
71105;BME280;58760;48.716;8.962;2023-05-25T08:38:58;96960.28;;;13.74;63.35
71105;BME280;58760;48.716;8.962;2023-05-25T08:41:23;96978.06;;;13.96;63.11
71105;BME280;58760;48.716;8.962;2023-05-25T08:43:49;96968.78;;;14.21;62.72
71105;BME280;58760;48.716;8.962;2023-05-25T08:46:29;96967.13;;;14.20;62.95
71105;BME280;58760;48.716;8.962;2023-05-25T08:49:02;96972.31;;;14.36;63.14
71105;BME280;58760;48.716;8.962;2023-05-25T08:51:34;96967.03;;;14.57;62.12
71105;BME280;58760;48.716;8.962;2023-05-25T08:54:08;96964.50;;;14.71;62.32
71105;BME280;58760;48.716;8.962;2023-05-25T08:56:40;96961.28;;;14.75;61.47
71105;BME280;58760;48.716;8.962;2023-05-25T09:04:46;96960.34;;;15.25;60.67
71105;BME280;58760;48.716;8.962;2023-05-25T09:07:12;96964.25;;;15.23;60.89
71105;BME280;58760;48.716;8.962;2023-05-25T09:09:38;96959.09;;;15.21;60.32
71105;BME280;58760;48.716;8.962;2023-05-25T09:12:04;96963.25;;;15.24;60.82
71105;BME280;58760;48.716;8.962;2023-05-25T09:14:30;96959.34;;;15.26;60.90
71105;BME280;58760;48.716;8.962;2023-05-25T09:16:57;96972.72;;;15.26;59.97
71105;BME280;58760;48.716;8.962;2023-05-25T09:19:22;96971.06;;;15.25;59.98
71105;BME280;58760;48.716;8.962;2023-05-25T09:21:47;96962.56;;;15.15;60.82
71105;BME280;58760;48.716;8.962;2023-05-25T09:24:14;96966.44;;;15.34;60.09
71105;BME280;58760;48.716;8.962;2023-05-25T09:26:40;96962.91;;;15.54;59.90
71105;BME280;58760;48.716;8.962;2023-05-25T09:29:08;96966.34;;;15.69;59.67
71105;BME280;58760;48.716;8.962;2023-05-25T09:31:37;96966.75;;;15.66;59.65
71105;BME280;58760;48.716;8.962;2023-05-25T09:34:02;96964.25;;;15.65;59.71
71105;BME280;58760;48.716;8.962;2023-05-25T09:36:34;96972.19;;;15.80;59.45
71105;BME280;58760;48.716;8.962;2023-05-25T09:39:02;96973.06;;;15.87;58.97
71105;BME280;58760;48.716;8.962;2023-05-25T09:41:28;96970.25;;;15.95;59.37
71105;BME280;58760;48.716;8.962;2023-05-25T09:43:54;96967.47;;;16.16;58.78
71105;BME280;58760;48.716;8.962;2023-05-25T09:46:19;96971.31;;;16.35;57.88
71105;BME280;58760;48.716;8.962;2023-05-25T09:48:45;96972.28;;;16.61;58.01
71105;BME280;58760;48.716;8.962;2023-05-25T09:51:12;96978.00;;;16.93;56.98
71105;BME280;58760;48.716;8.962;2023-05-25T09:53:37;96976.41;;;17.24;56.48
71105;BME280;58760;48.716;8.962;2023-05-25T09:56:04;96979.56;;;17.54;55.29
71105;BME280;58760;48.716;8.962;2023-05-25T09:58:29;96979.19;;;17.57;55.08
71105;BME280;58760;48.716;8.962;2023-05-25T10:00:55;96976.50;;;17.57;54.64
71105;BME280;58760;48.716;8.962;2023-05-25T10:03:20;96971.53;;;17.61;55.10
71105;BME280;58760;48.716;8.962;2023-05-25T10:05:47;96975.66;;;17.76;53.98
71105;BME280;58760;48.716;8.962;2023-05-25T10:08:13;96971.72;;;17.86;54.09
71105;BME280;58760;48.716;8.962;2023-05-25T10:10:39;96974.22;;;18.07;54.19
71105;BME280;58760;48.716;8.962;2023-05-25T10:13:07;96974.81;;;18.09;53.06
71105;BME280;58760;48.716;8.962;2023-05-25T10:15:32;96986.19;;;18.11;54.32
71105;BME280;58760;48.716;8.962;2023-05-25T10:18:00;96985.38;;;18.04;54.12
71105;BME280;58760;48.716;8.962;2023-05-25T10:20:26;96979.75;;;18.18;52.81
71105;BME280;58760;48.716;8.962;2023-05-25T10:25:39;96971.91;;;18.30;53.80
71105;BME280;58760;48.716;8.962;2023-05-25T10:28:13;96980.69;;;18.70;54.23
71105;BME280;58760;48.716;8.962;2023-05-25T10:30:41;96980.50;;;19.09;52.95
71105;BME280;58760;48.716;8.962;2023-05-25T10:33:07;96974.22;;;19.22;50.84
71105;BME280;58760;48.716;8.962;2023-05-25T10:35:34;96966.69;;;19.37;51.36
71105;BME280;58760;48.716;8.962;2023-05-25T10:38:03;96967.72;;;19.36;50.90
71105;BME280;58760;48.716;8.962;2023-05-25T10:40:28;96970.41;;;19.36;50.41
71105;BME280;58760;48.716;8.962;2023-05-25T10:42:54;96970.53;;;19.16;50.77
71105;BME280;58760;48.716;8.962;2023-05-25T10:45:20;96983.38;;;19.14;50.37
71105;BME280;58760;48.716;8.962;2023-05-25T10:47:46;96976.72;;;19.23;50.44
71105;BME280;58760;48.716;8.962;2023-05-25T10:50:20;96962.22;;;19.24;51.58
71105;BME280;58760;48.716;8.962;2023-05-25T10:52:56;96964.59;;;19.39;50.97
71105;BME280;58760;48.716;8.962;2023-05-25T10:55:22;96971.66;;;19.40;50.29
71105;BME280;58760;48.716;8.962;2023-05-25T10:58:06;96980.91;;;19.13;50.04
71105;BME280;58760;48.716;8.962;2023-05-25T11:00:32;96981.13;;;19.11;51.76
71105;BME280;58760;48.716;8.962;2023-05-25T11:02:58;96987.25;;;19.25;51.13
71105;BME280;58760;48.716;8.962;2023-05-25T11:07:56;96978.81;;;19.53;50.96
71105;BME280;58760;48.716;8.962;2023-05-25T11:10:54;96977.44;;;19.93;49.95
71105;BME280;58760;48.716;8.962;2023-05-25T11:13:34;96959.00;;;20.40;48.95
71105;BME280;58760;48.716;8.962;2023-05-25T11:16:16;96965.47;;;20.14;49.30
71105;BME280;58760;48.716;8.962;2023-05-25T11:18:52;96969.63;;;19.92;48.71
71105;BME280;58760;48.716;8.962;2023-05-25T11:23:53;96970.72;;;20.09;49.73
71105;BME280;58760;48.716;8.962;2023-05-25T11:26:20;96972.22;;;20.23;49.72
71105;BME280;58760;48.716;8.962;2023-05-25T11:28:46;96967.03;;;20.46;48.68
71105;BME280;58760;48.716;8.962;2023-05-25T11:31:12;96972.72;;;20.56;48.23
71105;BME280;58760;48.716;8.962;2023-05-25T11:33:37;96973.47;;;20.63;47.56
71105;BME280;58760;48.716;8.962;2023-05-25T11:36:04;96974.81;;;20.36;47.86
71105;BME280;58760;48.716;8.962;2023-05-25T11:38:31;96968.06;;;20.27;47.78
71105;BME280;58760;48.716;8.962;2023-05-25T11:40:57;96968.31;;;20.44;49.58
71105;BME280;58760;48.716;8.962;2023-05-25T11:43:24;96965.06;;;20.71;47.74
71105;BME280;58760;48.716;8.962;2023-05-25T11:45:56;96960.25;;;20.92;47.65
71105;BME280;58760;48.716;8.962;2023-05-25T11:48:21;96961.03;;;21.28;48.59
71105;BME280;58760;48.716;8.962;2023-05-25T11:50:47;96968.13;;;21.41;47.08
71105;BME280;58760;48.716;8.962;2023-05-25T11:53:12;96969.91;;;21.47;45.96
71105;BME280;58760;48.716;8.962;2023-05-25T11:55:39;96971.34;;;21.20;46.41
71105;BME280;58760;48.716;8.962;2023-05-25T11:58:05;96969.84;;;21.06;46.24
71105;BME280;58760;48.716;8.962;2023-05-25T12:00:31;96967.84;;;20.83;46.91
71105;BME280;58760;48.716;8.962;2023-05-25T12:02:56;96963.41;;;20.88;47.29
71105;BME280;58760;48.716;8.962;2023-05-25T12:05:22;96954.56;;;20.81;48.14
71105;BME280;58760;48.716;8.962;2023-05-25T12:07:48;96960.03;;;20.93;46.82
71105;BME280;58760;48.716;8.962;2023-05-25T12:10:14;96969.94;;;20.81;46.57
71105;BME280;58760;48.716;8.962;2023-05-25T12:12:49;96963.88;;;20.85;48.03
71105;BME280;58760;48.716;8.962;2023-05-25T12:15:16;96962.97;;;21.10;46.83
71105;BME280;58760;48.716;8.962;2023-05-25T12:17:43;96962.75;;;20.93;46.34
71105;BME280;58760;48.716;8.962;2023-05-25T12:20:10;96966.09;;;20.88;46.67
71105;BME280;58760;48.716;8.962;2023-05-25T12:22:40;96957.81;;;20.90;46.30
71105;BME280;58760;48.716;8.962;2023-05-25T12:25:07;96950.38;;;20.85;46.06
71105;BME280;58760;48.716;8.962;2023-05-25T12:27:34;96954.13;;;21.32;46.63
71105;BME280;58760;48.716;8.962;2023-05-25T12:30:01;96968.59;;;21.50;45.56
71105;BME280;58760;48.716;8.962;2023-05-25T12:32:26;96966.69;;;21.68;44.99
71105;BME280;58760;48.716;8.962;2023-05-25T12:35:05;96952.03;;;21.99;44.38
71105;BME280;58760;48.716;8.962;2023-05-25T12:37:32;96960.28;;;22.27;43.23
71105;BME280;58760;48.716;8.962;2023-05-25T12:39:57;96957.34;;;22.29;43.08
71105;BME280;58760;48.716;8.962;2023-05-25T12:42:23;96954.97;;;22.44;43.35
71105;BME280;58760;48.716;8.962;2023-05-25T12:44:56;96958.31;;;22.86;43.91
71105;BME280;58760;48.716;8.962;2023-05-25T12:47:23;96948.22;;;23.50;41.15
71105;BME280;58760;48.716;8.962;2023-05-25T12:49:50;96949.31;;;23.65;40.33
71105;BME280;58760;48.716;8.962;2023-05-25T12:52:36;96957.94;;;23.34;40.70
71105;BME280;58760;48.716;8.962;2023-05-25T12:55:26;96947.88;;;23.46;40.95
71105;BME280;58760;48.716;8.962;2023-05-25T12:58:00;96958.31;;;22.98;41.09
71105;BME280;58760;48.716;8.962;2023-05-25T13:00:37;96953.66;;;23.38;41.41
71105;BME280;58760;48.716;8.962;2023-05-25T13:03:04;96956.28;;;23.94;40.48
71105;BME280;58760;48.716;8.962;2023-05-25T13:05:33;96951.53;;;23.68;41.21
71105;BME280;58760;48.716;8.962;2023-05-25T13:08:01;96955.22;;;23.34;39.98
71105;BME280;58760;48.716;8.962;2023-05-25T13:10:28;96953.47;;;23.00;40.96
71105;BME280;58760;48.716;8.962;2023-05-25T13:12:54;96953.53;;;23.16;41.78
71105;BME280;58760;48.716;8.962;2023-05-25T13:15:22;96949.81;;;23.34;41.54
71105;BME280;58760;48.716;8.962;2023-05-25T13:17:48;96953.56;;;23.33;40.37
71105;BME280;58760;48.716;8.962;2023-05-25T13:20:20;96943.75;;;24.22;39.07